TimePST,TemperatureF,Dew PointF,Humidity,Sea Level PressureIn,VisibilityMPH,Wind Direction,Wind SpeedMPH,Gust SpeedMPH,PrecipitationIn,Events,Conditions,WindDirDegrees,DateUTC
12:15 AM,55.4,48.2,77,29.88,10.0,South,9.2,-,N/A,,Clear,180,2012-11-08 08:15:00
12:35 AM,53.6,48.2,82,29.88,10.0,South,5.8,-,N/A,,Clear,170,2012-11-08 08:35:00
1:15 AM,53.6,46.4,77,29.85,10.0,SSE,12.7,-,N/A,,Partly Cloudy,150,2012-11-08 09:15:00
1:35 AM,55.4,48.2,77,29.84,10.0,SSE,9.2,-,N/A,,Partly Cloudy,160,2012-11-08 09:35:00
1:55 AM,55.4,48.2,77,29.85,10.0,South,8.1,-,N/A,,Mostly Cloudy,180,2012-11-08 09:55:00
2:15 AM,53.6,48.2,82,29.84,10.0,South,9.2,-,N/A,,Mostly Cloudy,170,2012-11-08 10:15:00
2:35 AM,53.6,48.2,82,29.83,10.0,SSE,13.8,17.3,N/A,,Mostly Cloudy,160,2012-11-08 10:35:00
2:55 AM,51.8,48.2,88,29.85,10.0,SSW,13.8,20.7,N/A,,Overcast,200,2012-11-08 10:55:00
3:35 AM,50.0,46.4,87,29.84,10.0,South,11.5,19.6,N/A,,Mostly Cloudy,170,2012-11-08 11:35:00
3:55 AM,50.0,44.6,82,29.83,10.0,South,13.8,19.6,N/A,,Scattered Clouds,170,2012-11-08 11:55:00
4:15 AM,48.2,44.6,87,29.84,10.0,South,10.4,-,N/A,,Clear,170,2012-11-08 12:15:00
4:35 AM,48.2,44.6,87,29.84,10.0,South,9.2,17.3,N/A,,Clear,170,2012-11-08 12:35:00
4:55 AM,48.2,44.6,87,29.84,10.0,South,11.5,-,N/A,,Clear,180,2012-11-08 12:55:00
5:15 AM,48.2,44.6,87,29.85,10.0,South,12.7,18.4,N/A,,Scattered Clouds,180,2012-11-08 13:15:00
5:35 AM,48.2,44.6,87,29.85,10.0,South,13.8,23.0,N/A,,Overcast,170,2012-11-08 13:35:00
5:55 AM,46.4,42.8,87,29.84,10.0,South,15.0,24.2,N/A,,Overcast,170,2012-11-08 13:55:00
6:15 AM,46.4,42.8,87,29.85,10.0,South,13.8,23.0,N/A,,Mostly Cloudy,170,2012-11-08 14:15:00
6:35 AM,46.4,42.8,87,29.85,10.0,South,16.1,23.0,N/A,,Mostly Cloudy,170,2012-11-08 14:35:00
6:55 AM,46.4,41.0,81,29.86,10.0,South,13.8,18.4,N/A,,Overcast,170,2012-11-08 14:55:00
7:15 AM,46.4,41.0,81,29.86,10.0,South,11.5,23.0,N/A,,Overcast,180,2012-11-08 15:15:00
7:35 AM,46.4,41.0,81,29.88,10.0,South,11.5,20.7,N/A,,Overcast,170,2012-11-08 15:35:00
7:55 AM,46.4,39.2,76,29.89,10.0,South,12.7,19.6,N/A,,Overcast,190,2012-11-08 15:55:00
8:15 AM,46.4,39.2,76,29.90,10.0,South,10.4,19.6,N/A,,Overcast,190,2012-11-08 16:15:00
8:35 AM,46.4,39.2,76,29.90,10.0,South,12.7,21.9,N/A,,Overcast,190,2012-11-08 16:35:00
8:55 AM,46.4,39.2,76,29.90,10.0,South,9.2,20.7,N/A,,Mostly Cloudy,170,2012-11-08 16:55:00
9:15 AM,46.4,39.2,76,29.90,10.0,South,13.8,20.7,N/A,,Mostly Cloudy,190,2012-11-08 17:15:00
9:35 AM,46.4,39.2,76,29.91,10.0,South,9.2,-,N/A,,Overcast,170,2012-11-08 17:35:00
9:55 AM,48.2,37.4,66,29.91,10.0,SSE,15.0,19.6,N/A,,Mostly Cloudy,160,2012-11-08 17:55:00
10:15 AM,48.2,39.2,71,29.92,10.0,South,11.5,16.1,N/A,,Mostly Cloudy,170,2012-11-08 18:15:00
10:35 AM,51.8,37.4,58,29.92,10.0,South,15.0,23.0,N/A,,Mostly Cloudy,180,2012-11-08 18:35:00
10:55 AM,51.8,37.4,58,29.92,10.0,South,12.7,20.7,N/A,,Mostly Cloudy,180,2012-11-08 18:55:00
11:15 AM,50.0,37.4,62,29.91,10.0,SSE,13.8,20.7,N/A,,Mostly Cloudy,150,2012-11-08 19:15:00
11:35 AM,51.8,35.6,54,29.91,10.0,South,8.1,20.7,N/A,,Scattered Clouds,190,2012-11-08 19:35:00
11:55 AM,53.6,35.6,51,29.90,10.0,South,15.0,19.6,N/A,,Mostly Cloudy,170,2012-11-08 19:55:00
12:15 PM,53.6,35.6,51,29.89,10.0,South,12.7,19.6,N/A,,Mostly Cloudy,180,2012-11-08 20:15:00
12:35 PM,51.8,33.8,50,29.88,10.0,South,12.7,19.6,N/A,,Mostly Cloudy,190,2012-11-08 20:35:00
12:55 PM,53.6,35.6,51,29.88,10.0,South,15.0,21.9,N/A,,Mostly Cloudy,190,2012-11-08 20:55:00
1:15 PM,51.8,35.6,54,29.87,10.0,SSW,12.7,-,N/A,,Overcast,200,2012-11-08 21:15:00
1:35 PM,51.8,35.6,54,29.85,10.0,South,10.4,-,N/A,,Overcast,190,2012-11-08 21:35:00
1:55 PM,48.2,41.0,76,29.86,3.0,SW,9.2,16.1,N/A,,Overcast,230,2012-11-08 21:55:00
2:15 PM,46.4,44.6,93,29.86,1.2,SW,11.5,-,N/A,,Overcast,230,2012-11-08 22:15:00
2:35 PM,46.4,44.6,93,29.85,1.5,WSW,13.8,19.6,N/A,,Overcast,240,2012-11-08 22:35:00
3:15 PM,44.6,42.8,93,29.86,1.8,SSW,9.2,-,N/A,,Overcast,210,2012-11-08 23:15:00
3:35 PM,44.6,42.8,93,29.84,8.0,South,8.1,-,N/A,,Overcast,170,2012-11-08 23:35:00
3:55 PM,44.6,41.0,87,29.84,10.0,South,5.8,-,0.01,,Partly Cloudy,190,2012-11-08 23:55:00
4:15 PM,46.4,42.8,87,29.84,10.0,South,6.9,-,N/A,,Scattered Clouds,190,2012-11-09 00:15:00
4:35 PM,46.4,42.8,87,29.84,10.0,Calm,Calm,-,N/A,,Scattered Clouds,0,2012-11-09 00:35:00
4:55 PM,46.4,44.6,93,29.84,10.0,South,6.9,-,0.01,,Scattered Clouds,180,2012-11-09 00:55:00
5:15 PM,46.4,44.6,93,29.84,10.0,South,6.9,-,N/A,,Mostly Cloudy,170,2012-11-09 01:15:00
5:35 PM,46.4,44.6,93,29.85,10.0,South,5.8,-,N/A,,Overcast,190,2012-11-09 01:35:00
5:55 PM,46.4,44.6,93,29.85,10.0,South,8.1,-,0.01,,Overcast,180,2012-11-09 01:55:00
6:15 PM,46.4,44.6,93,29.84,10.0,SSW,6.9,-,N/A,,Overcast,200,2012-11-09 02:15:00
6:35 PM,46.4,44.6,93,29.84,10.0,South,5.8,-,N/A,,Overcast,180,2012-11-09 02:35:00
6:55 PM,46.4,44.6,93,29.84,10.0,SW,5.8,-,N/A,,Overcast,220,2012-11-09 02:55:00
7:15 PM,46.4,44.6,93,29.84,10.0,SSW,8.1,-,0.01,,Overcast,210,2012-11-09 03:15:00
7:35 PM,46.4,44.6,93,29.83,9.0,SSW,8.1,-,0.01,,Overcast,210,2012-11-09 03:35:00
7:55 PM,46.4,44.6,93,29.83,10.0,South,8.1,-,0.01,,Overcast,190,2012-11-09 03:55:00
8:15 PM,46.4,44.6,93,29.84,10.0,SSW,5.8,-,N/A,,Overcast,200,2012-11-09 04:15:00
8:35 PM,46.4,44.6,93,29.84,10.0,SSW,6.9,-,N/A,,Overcast,200,2012-11-09 04:35:00
8:55 PM,44.6,42.8,93,29.84,10.0,South,8.1,-,0.01,,Mostly Cloudy,190,2012-11-09 04:55:00
9:15 PM,44.6,42.8,93,29.85,10.0,South,6.9,-,N/A,,Mostly Cloudy,190,2012-11-09 05:15:00
9:35 PM,44.6,39.2,81,29.85,10.0,SSW,5.8,-,N/A,,Partly Cloudy,210,2012-11-09 05:35:00
9:55 PM,44.6,42.8,93,29.86,10.0,South,4.6,-,N/A,,Mostly Cloudy,170,2012-11-09 05:55:00
10:15 PM,44.6,42.8,93,29.87,10.0,South,4.6,-,N/A,,Mostly Cloudy,180,2012-11-09 06:15:00
10:35 PM,42.8,41.0,93,29.86,10.0,SSE,3.5,-,N/A,,Scattered Clouds,160,2012-11-09 06:35:00
11:15 PM,42.8,39.2,87,29.87,10.0,SSE,6.9,-,N/A,,Clear,150,2012-11-09 07:15:00
11:35 PM,41.0,39.2,93,29.87,10.0,SE,5.8,-,N/A,,Clear,140,2012-11-09 07:35:00